sensor_id;sensor_type;location;lat;lon;timestamp;pressure;altitude;pressure_sealevel;temperature;humidity
32733;BME280;11867;51.198;11.966;2023-10-09T00:01:03;100956.44;;;13.90;90.67
32733;BME280;11867;51.198;11.966;2023-10-09T00:02:26;100963.56;;;13.91;91.09
32733;BME280;11867;51.198;11.966;2023-10-09T00:03:51;100953.56;;;14.06;90.70
32733;BME280;11867;51.198;11.966;2023-10-09T00:05:15;100950.91;;;14.25;89.80
32733;BME280;11867;51.198;11.966;2023-10-09T00:06:45;100956.03;;;14.31;89.92
32733;BME280;11867;51.198;11.966;2023-10-09T00:08:08;100944.31;;;13.97;90.11
32733;BME280;11867;51.198;11.966;2023-10-09T00:09:33;100942.25;;;13.49;92.83
32733;BME280;11867;51.198;11.966;2023-10-09T00:11:07;100945.75;;;13.15;95.20
32733;BME280;11867;51.198;11.966;2023-10-09T00:12:38;100937.72;;;13.29;95.67
32733;BME280;11867;51.198;11.966;2023-10-09T00:14:01;100938.66;;;13.53;94.54
32733;BME280;11867;51.198;11.966;2023-10-09T00:15:27;100935.66;;;13.84;92.80
32733;BME280;11867;51.198;11.966;2023-10-09T00:16:50;100938.50;;;14.03;91.61
32733;BME280;11867;51.198;11.966;2023-10-09T00:18:18;100937.06;;;14.11;91.41
32733;BME280;11867;51.198;11.966;2023-10-09T00:19:46;100932.41;;;14.36;89.75
32733;BME280;11867;51.198;11.966;2023-10-09T00:21:13;100942.81;;;14.39;89.32
32733;BME280;11867;51.198;11.966;2023-10-09T00:22:37;100941.13;;;14.43;89.04
32733;BME280;11867;51.198;11.966;2023-10-09T00:24:05;100942.13;;;14.47;88.45
32733;BME280;11867;51.198;11.966;2023-10-09T00:25:35;100934.66;;;14.52;88.31
32733;BME280;11867;51.198;11.966;2023-10-09T00:26:58;100936.09;;;14.50;88.30
32733;BME280;11867;51.198;11.966;2023-10-09T00:28:33;100929.91;;;14.63;88.06
32733;BME280;11867;51.198;11.966;2023-10-09T00:29:58;100925.41;;;14.72;87.57
32733;BME280;11867;51.198;11.966;2023-10-09T00:31:21;100920.16;;;14.76;87.39
32733;BME280;11867;51.198;11.966;2023-10-09T00:32:49;100915.91;;;14.84;87.10
32733;BME280;11867;51.198;11.966;2023-10-09T00:34:22;100917.03;;;14.83;87.09
32733;BME280;11867;51.198;11.966;2023-10-09T00:35:47;100922.75;;;14.86;87.27
32733;BME280;11867;51.198;11.966;2023-10-09T00:37:16;100918.53;;;14.94;86.75
32733;BME280;11867;51.198;11.966;2023-10-09T00:38:39;100910.22;;;14.99;86.47
32733;BME280;11867;51.198;11.966;2023-10-09T00:40:07;100911.69;;;15.10;85.51
32733;BME280;11867;51.198;11.966;2023-10-09T00:41:34;100906.94;;;15.16;85.72
32733;BME280;11867;51.198;11.966;2023-10-09T00:42:59;100906.28;;;15.24;85.69
32733;BME280;11867;51.198;11.966;2023-10-09T00:44:24;100896.34;;;15.09;86.02
32733;BME280;11867;51.198;11.966;2023-10-09T00:46:02;100890.53;;;14.49;88.42
32733;BME280;11867;51.198;11.966;2023-10-09T00:47:34;100893.81;;;14.51;89.63
32733;BME280;11867;51.198;11.966;2023-10-09T00:48:59;100889.13;;;14.76;88.56
32733;BME280;11867;51.198;11.966;2023-10-09T00:50:23;100883.78;;;14.65;87.74
32733;BME280;11867;51.198;11.966;2023-10-09T00:51:50;100881.25;;;14.45;89.38
32733;BME280;11867;51.198;11.966;2023-10-09T00:53:18;100878.50;;;14.45;89.30
32733;BME280;11867;51.198;11.966;2023-10-09T00:54:53;100874.56;;;14.32;89.88
32733;BME280;11867;51.198;11.966;2023-10-09T00:56:15;100876.59;;;13.97;91.61
32733;BME280;11867;51.198;11.966;2023-10-09T00:57:50;100866.16;;;13.99;92.25
32733;BME280;11867;51.198;11.966;2023-10-09T00:59:15;100864.78;;;14.02;91.95
32733;BME280;11867;51.198;11.966;2023-10-09T01:00:42;100863.69;;;13.44;95.18
32733;BME280;11867;51.198;11.966;2023-10-09T01:02:09;100859.53;;;13.47;95.23
32733;BME280;11867;51.198;11.966;2023-10-09T01:03:32;100850.44;;;13.17;96.98
32733;BME280;11867;51.198;11.966;2023-10-09T01:04:55;100855.00;;;13.27;97.21
32733;BME280;11867;51.198;11.966;2023-10-09T01:06:19;100861.19;;;13.48;96.88
32733;BME280;11867;51.198;11.966;2023-10-09T01:07:43;100858.97;;;13.79;94.99
32733;BME280;11867;51.198;11.966;2023-10-09T01:09:06;100857.75;;;13.90;94.47
32733;BME280;11867;51.198;11.966;2023-10-09T01:10:44;100862.38;;;14.19;92.89
32733;BME280;11867;51.198;11.966;2023-10-09T01:12:12;100862.38;;;14.43;91.49
32733;BME280;11867;51.198;11.966;2023-10-09T01:13:41;100861.28;;;14.63;90.11
32733;BME280;11867;51.198;11.966;2023-10-09T01:15:14;100859.72;;;14.57;90.08
32733;BME280;11867;51.198;11.966;2023-10-09T01:16:59;100850.31;;;14.20;91.42
32733;BME280;11867;51.198;11.966;2023-10-09T01:18:25;100845.75;;;14.10;91.97
32733;BME280;11867;51.198;11.966;2023-10-09T01:19:57;100849.59;;;14.09;92.85
32733;BME280;11867;51.198;11.966;2023-10-09T01:21:25;100851.06;;;14.45;91.20
32733;BME280;11867;51.198;11.966;2023-10-09T01:22:49;100849.38;;;14.49;90.68
32733;BME280;11867;51.198;11.966;2023-10-09T01:24:14;100847.22;;;14.70;90.12
32733;BME280;11867;51.198;11.966;2023-10-09T01:25:38;100853.91;;;14.83;89.36
32733;BME280;11867;51.198;11.966;2023-10-09T01:27:06;100846.19;;;14.85;89.03
32733;BME280;11867;51.198;11.966;2023-10-09T01:28:34;100841.97;;;14.30;90.75
32733;BME280;11867;51.198;11.966;2023-10-09T01:29:56;100843.94;;;13.77;94.33
32733;BME280;11867;51.198;11.966;2023-10-09T01:31:21;100844.75;;;13.77;94.94
32733;BME280;11867;51.198;11.966;2023-10-09T01:32:43;100838.50;;;14.20;93.57
32733;BME280;11867;51.198;11.966;2023-10-09T01:34:06;100829.13;;;14.45;92.17
32733;BME280;11867;51.198;11.966;2023-10-09T01:35:31;100829.13;;;14.02;93.42
32733;BME280;11867;51.198;11.966;2023-10-09T01:36:56;100824.97;;;13.80;95.56
32733;BME280;11867;51.198;11.966;2023-10-09T01:38:21;100821.22;;;14.19;94.39
32733;BME280;11867;51.198;11.966;2023-10-09T01:39:56;100810.22;;;14.24;94.26
32733;BME280;11867;51.198;11.966;2023-10-09T01:41:21;100805.16;;;14.56;92.78
32733;BME280;11867;51.198;11.966;2023-10-09T01:42:43;100795.78;;;14.76;91.18
32733;BME280;11867;51.198;11.966;2023-10-09T01:44:07;100788.22;;;14.67;91.29
32733;BME280;11867;51.198;11.966;2023-10-09T01:45:34;100789.13;;;14.82;90.18
32733;BME280;11867;51.198;11.966;2023-10-09T01:47:04;100794.44;;;14.92;89.21
32733;BME280;11867;51.198;11.966;2023-10-09T01:48:29;100793.25;;;14.98;89.27
32733;BME280;11867;51.198;11.966;2023-10-09T01:49:57;100790.22;;;15.00;88.89
32733;BME280;11867;51.198;11.966;2023-10-09T01:51:19;100790.66;;;15.07;88.36
32733;BME280;11867;51.198;11.966;2023-10-09T01:52:43;100795.03;;;15.08;88.34
32733;BME280;11867;51.198;11.966;2023-10-09T01:54:05;100787.44;;;15.19;87.76
32733;BME280;11867;51.198;11.966;2023-10-09T01:55:29;100786.16;;;15.30;86.87
32733;BME280;11867;51.198;11.966;2023-10-09T01:56:56;100779.13;;;15.24;86.82
32733;BME280;11867;51.198;11.966;2023-10-09T01:58:19;100769.41;;;15.12;87.00
32733;BME280;11867;51.198;11.966;2023-10-09T01:59:46;100772.06;;;14.85;88.82
32733;BME280;11867;51.198;11.966;2023-10-09T02:01:13;100773.97;;;15.03;88.25
32733;BME280;11867;51.198;11.966;2023-10-09T02:02:35;100776.44;;;15.19;87.42
32733;BME280;11867;51.198;11.966;2023-10-09T02:03:59;100773.91;;;15.22;86.85
32733;BME280;11867;51.198;11.966;2023-10-09T02:05:28;100787.53;;;15.13;86.86
32733;BME280;11867;51.198;11.966;2023-10-09T02:06:55;100784.03;;;15.08;87.17
32733;BME280;11867;51.198;11.966;2023-10-09T02:08:17;100774.94;;;14.93;88.18
32733;BME280;11867;51.198;11.966;2023-10-09T02:09:43;100766.28;;;14.67;89.52
32733;BME280;11867;51.198;11.966;2023-10-09T02:11:08;100760.66;;;14.59;90.18
32733;BME280;11867;51.198;11.966;2023-10-09T02:12:36;100759.84;;;14.58;90.76
32733;BME280;11867;51.198;11.966;2023-10-09T02:13:59;100759.03;;;14.77;90.39
32733;BME280;11867;51.198;11.966;2023-10-09T02:15:23;100752.09;;;14.79;89.80
32733;BME280;11867;51.198;11.966;2023-10-09T02:17:03;100748.25;;;14.80;89.80
32733;BME280;11867;51.198;11.966;2023-10-09T02:18:29;100736.78;;;14.78;89.82
32733;BME280;11867;51.198;11.966;2023-10-09T02:20:02;100731.63;;;14.71;89.92
32733;BME280;11867;51.198;11.966;2023-10-09T02:21:39;100738.09;;;14.43;91.69
32733;BME280;11867;51.198;11.966;2023-10-09T02:23:02;100740.16;;;14.51;91.97
32733;BME280;11867;51.198;11.966;2023-10-09T02:24:34;100725.13;;;14.67;90.75
32733;BME280;11867;51.198;11.966;2023-10-09T02:26:16;100723.38;;;14.58;91.19
32733;BME280;11867;51.198;11.966;2023-10-09T02:27:41;100716.94;;;14.81;90.21
32733;BME280;11867;51.198;11.966;2023-10-09T02:29:15;100715.44;;;14.89;89.15
32733;BME280;11867;51.198;11.966;2023-10-09T02:30:39;100717.91;;;14.71;89.77
32733;BME280;11867;51.198;11.966;2023-10-09T02:32:03;100715.31;;;14.80;89.58
32733;BME280;11867;51.198;11.966;2023-10-09T02:33:35;100715.31;;;14.80;89.77
32733;BME280;11867;51.198;11.966;2023-10-09T02:34:58;100707.94;;;14.62;90.85
32733;BME280;11867;51.198;11.966;2023-10-09T02:36:30;100706.88;;;14.77;90.22
32733;BME280;11867;51.198;11.966;2023-10-09T02:37:54;100707.50;;;14.87;89.52
32733;BME280;11867;51.198;11.966;2023-10-09T02:39:16;100704.53;;;14.84;89.51
32733;BME280;11867;51.198;11.966;2023-10-09T02:40:45;100706.66;;;14.73;89.88
32733;BME280;11867;51.198;11.966;2023-10-09T02:42:40;100708.13;;;14.84;89.21
32733;BME280;11867;51.198;11.966;2023-10-09T02:44:05;100702.22;;;14.91;89.02
32733;BME280;11867;51.198;11.966;2023-10-09T02:45:33;100693.69;;;14.60;90.59
32733;BME280;11867;51.198;11.966;2023-10-09T02:46:57;100692.78;;;14.45;90.97
32733;BME280;11867;51.198;11.966;2023-10-09T02:48:20;100695.09;;;14.57;90.94
32733;BME280;11867;51.198;11.966;2023-10-09T02:49:47;100694.94;;;14.67;90.13
32733;BME280;11867;51.198;11.966;2023-10-09T02:51:11;100700.34;;;14.72;89.70
32733;BME280;11867;51.198;11.966;2023-10-09T02:52:43;100693.94;;;14.77;89.30
32733;BME280;11867;51.198;11.966;2023-10-09T02:54:08;100697.75;;;14.62;90.83
32733;BME280;11867;51.198;11.966;2023-10-09T02:55:42;100687.13;;;14.75;90.48
32733;BME280;11867;51.198;11.966;2023-10-09T02:57:15;100678.63;;;14.38;91.92
32733;BME280;11867;51.198;11.966;2023-10-09T02:58:45;100680.31;;;13.77;95.75
32733;BME280;11867;51.198;11.966;2023-10-09T03:00:10;100676.28;;;13.45;98.84
32733;BME280;11867;51.198;11.966;2023-10-09T03:01:41;100677.41;;;13.68;98.52
32733;BME280;11867;51.198;11.966;2023-10-09T03:03:04;100676.66;;;13.63;98.15
32733;BME280;11867;51.198;11.966;2023-10-09T03:04:29;100677.94;;;13.70;97.81
32733;BME280;11867;51.198;11.966;2023-10-09T03:05:51;100672.66;;;13.74;98.05
32733;BME280;11867;51.198;11.966;2023-10-09T03:07:14;100684.94;;;14.01;96.72
32733;BME280;11867;51.198;11.966;2023-10-09T03:08:36;100682.69;;;14.03;96.05
32733;BME280;11867;51.198;11.966;2023-10-09T03:09:59;100687.84;;;14.28;94.33
32733;BME280;11867;51.198;11.966;2023-10-09T03:11:21;100685.88;;;14.48;92.98
32733;BME280;11867;51.198;11.966;2023-10-09T03:12:45;100677.53;;;14.39;93.43
32733;BME280;11867;51.198;11.966;2023-10-09T03:14:11;100668.41;;;14.44;93.30
32733;BME280;11867;51.198;11.966;2023-10-09T03:15:35;100670.31;;;14.05;94.51
32733;BME280;11867;51.198;11.966;2023-10-09T03:16:58;100669.31;;;13.58;97.32
32733;BME280;11867;51.198;11.966;2023-10-09T03:18:21;100661.19;;;13.91;96.52
32733;BME280;11867;51.198;11.966;2023-10-09T03:19:43;100661.75;;;14.12;94.37
32733;BME280;11867;51.198;11.966;2023-10-09T03:21:07;100657.06;;;14.31;93.58
32733;BME280;11867;51.198;11.966;2023-10-09T03:22:29;100662.91;;;14.44;92.78
32733;BME280;11867;51.198;11.966;2023-10-09T03:23:52;100660.28;;;14.52;91.93
32733;BME280;11867;51.198;11.966;2023-10-09T03:25:14;100657.03;;;14.50;91.60
32733;BME280;11867;51.198;11.966;2023-10-09T03:26:39;100662.91;;;14.44;92.21
32733;BME280;11867;51.198;11.966;2023-10-09T03:28:01;100653.19;;;14.51;91.87
32733;BME280;11867;51.198;11.966;2023-10-09T03:29:25;100655.00;;;13.85;94.96
32733;BME280;11867;51.198;11.966;2023-10-09T03:30:49;100663.63;;;13.73;96.93
32733;BME280;11867;51.198;11.966;2023-10-09T03:32:12;100668.94;;;14.08;95.52
32733;BME280;11867;51.198;11.966;2023-10-09T03:33:35;100655.59;;;14.20;94.05
32733;BME280;11867;51.198;11.966;2023-10-09T03:34:58;100663.53;;;14.41;93.21
32733;BME280;11867;51.198;11.966;2023-10-09T03:36:22;100658.63;;;14.38;92.77
32733;BME280;11867;51.198;11.966;2023-10-09T03:37:48;100651.94;;;14.44;92.44
32733;BME280;11867;51.198;11.966;2023-10-09T03:39:10;100650.84;;;14.26;93.31
32733;BME280;11867;51.198;11.966;2023-10-09T03:40:46;100662.56;;;13.93;95.86
32733;BME280;11867;51.198;11.966;2023-10-09T03:42:10;100652.03;;;14.01;95.49
32733;BME280;11867;51.198;11.966;2023-10-09T03:43:37;100650.03;;;13.87;96.97
32733;BME280;11867;51.198;11.966;2023-10-09T03:45:05;100646.91;;;13.75;98.50
32733;BME280;11867;51.198;11.966;2023-10-09T03:46:35;100651.22;;;13.81;98.12
32733;BME280;11867;51.198;11.966;2023-10-09T03:47:58;100655.78;;;13.67;98.84
32733;BME280;11867;51.198;11.966;2023-10-09T03:49:24;100643.81;;;13.82;98.51
32733;BME280;11867;51.198;11.966;2023-10-09T03:50:48;100649.84;;;13.79;99.10
32733;BME280;11867;51.198;11.966;2023-10-09T03:52:10;100647.34;;;13.82;98.17
32733;BME280;11867;51.198;11.966;2023-10-09T03:53:39;100638.19;;;13.92;98.23
32733;BME280;11867;51.198;11.966;2023-10-09T03:55:02;100640.78;;;13.83;98.39
32733;BME280;11867;51.198;11.966;2023-10-09T03:56:32;100629.28;;;13.81;98.55
32733;BME280;11867;51.198;11.966;2023-10-09T03:57:55;100618.31;;;13.81;98.57
32733;BME280;11867;51.198;11.966;2023-10-09T03:59:20;100615.63;;;13.57;100.00
32733;BME280;11867;51.198;11.966;2023-10-09T04:00:44;100611.19;;;13.80;100.00
32733;BME280;11867;51.198;11.966;2023-10-09T04:02:08;100607.25;;;14.05;98.64
32733;BME280;11867;51.198;11.966;2023-10-09T04:03:32;100591.66;;;14.06;97.71
32733;BME280;11867;51.198;11.966;2023-10-09T04:04:54;100586.09;;;13.92;98.72
32733;BME280;11867;51.198;11.966;2023-10-09T04:06:17;100596.81;;;14.07;98.34
32733;BME280;11867;51.198;11.966;2023-10-09T04:07:40;100591.78;;;14.15;97.91
32733;BME280;11867;51.198;11.966;2023-10-09T04:09:05;100594.53;;;14.15;98.39
32733;BME280;11867;51.198;11.966;2023-10-09T04:10:48;100591.56;;;14.11;98.68
32733;BME280;11867;51.198;11.966;2023-10-09T04:12:19;100598.22;;;14.05;99.26
32733;BME280;11867;51.198;11.966;2023-10-09T04:13:47;100588.91;;;14.06;99.67
32733;BME280;11867;51.198;11.966;2023-10-09T04:15:13;100583.56;;;14.15;99.07
32733;BME280;11867;51.198;11.966;2023-10-09T04:16:39;100583.34;;;14.11;98.06
32733;BME280;11867;51.198;11.966;2023-10-09T04:18:13;100582.09;;;13.84;100.00
32733;BME280;11867;51.198;11.966;2023-10-09T04:19:37;100577.78;;;13.78;100.00
32733;BME280;11867;51.198;11.966;2023-10-09T04:21:10;100580.31;;;13.93;100.00
32733;BME280;11867;51.198;11.966;2023-10-09T04:22:41;100570.19;;;13.56;100.00
32733;BME280;11867;51.198;11.966;2023-10-09T04:24:06;100562.78;;;13.57;100.00
32733;BME280;11867;51.198;11.966;2023-10-09T04:25:44;100561.81;;;13.85;100.00
32733;BME280;11867;51.198;11.966;2023-10-09T04:27:12;100565.69;;;14.17;100.00
32733;BME280;11867;51.198;11.966;2023-10-09T04:28:34;100563.38;;;13.91;100.00
32733;BME280;11867;51.198;11.966;2023-10-09T04:29:58;100568.59;;;14.07;100.00
32733;BME280;11867;51.198;11.966;2023-10-09T04:31:22;100561.22;;;14.21;100.00
32733;BME280;11867;51.198;11.966;2023-10-09T04:32:55;100566.50;;;14.18;100.00
32733;BME280;11867;51.198;11.966;2023-10-09T04:34:22;100560.13;;;14.22;100.00
32733;BME280;11867;51.198;11.966;2023-10-09T04:35:46;100565.44;;;14.32;100.00
32733;BME280;11867;51.198;11.966;2023-10-09T04:37:28;100556.84;;;14.53;99.84
32733;BME280;11867;51.198;11.966;2023-10-09T04:38:59;100564.53;;;14.70;98.89
32733;BME280;11867;51.198;11.966;2023-10-09T04:40:38;100554.56;;;14.27;100.00
32733;BME280;11867;51.198;11.966;2023-10-09T04:42:10;100553.28;;;14.39;100.00
32733;BME280;11867;51.198;11.966;2023-10-09T04:43:50;100556.88;;;14.20;100.00
32733;BME280;11867;51.198;11.966;2023-10-09T04:45:13;100552.44;;;14.24;100.00
32733;BME280;11867;51.198;11.966;2023-10-09T04:47:02;100549.50;;;14.35;100.00
32733;BME280;11867;51.198;11.966;2023-10-09T04:48:42;100554.59;;;14.41;100.00
32733;BME280;11867;51.198;11.966;2023-10-09T04:50:09;100547.28;;;14.50;100.00
32733;BME280;11867;51.198;11.966;2023-10-09T04:51:32;100541.56;;;14.33;100.00
32733;BME280;11867;51.198;11.966;2023-10-09T04:52:59;100553.91;;;14.17;100.00
32733;BME280;11867;51.198;11.966;2023-10-09T04:54:42;100553.97;;;14.11;100.00
32733;BME280;11867;51.198;11.966;2023-10-09T04:56:24;100548.47;;;14.30;100.00
32733;BME280;11867;51.198;11.966;2023-10-09T04:57:53;100546.16;;;14.05;100.00
32733;BME280;11867;51.198;11.966;2023-10-09T04:59:31;100542.94;;;14.17;100.00
32733;BME280;11867;51.198;11.966;2023-10-09T05:01:07;100540.53;;;13.96;100.00
32733;BME280;11867;51.198;11.966;2023-10-09T05:02:37;100532.53;;;14.00;100.00
32733;BME280;11867;51.198;11.966;2023-10-09T05:04:02;100536.22;;;14.09;100.00
32733;BME280;11867;51.198;11.966;2023-10-09T05:05:27;100537.16;;;14.18;100.00
32733;BME280;11867;51.198;11.966;2023-10-09T05:07:06;100537.88;;;14.24;100.00
32733;BME280;11867;51.198;11.966;2023-10-09T05:08:43;100545.97;;;14.15;100.00
32733;BME280;11867;51.198;11.966;2023-10-09T05:10:09;100547.22;;;14.23;100.00
32733;BME280;11867;51.198;11.966;2023-10-09T05:11:36;100534.66;;;14.03;100.00
32733;BME280;11867;51.198;11.966;2023-10-09T05:13:17;100540.31;;;14.25;100.00
32733;BME280;11867;51.198;11.966;2023-10-09T05:15:00;100541.56;;;14.33;100.00
32733;BME280;11867;51.198;11.966;2023-10-09T05:16:30;100534.06;;;14.39;100.00
32733;BME280;11867;51.198;11.966;2023-10-09T05:17:55;100538.00;;;14.65;100.00
32733;BME280;11867;51.198;11.966;2023-10-09T05:19:20;100533.72;;;14.59;100.00
32733;BME280;11867;51.198;11.966;2023-10-09T05:20:55;100528.75;;;14.75;100.00
32733;BME280;11867;51.198;11.966;2023-10-09T05:22:19;100530.00;;;14.83;100.00
32733;BME280;11867;51.198;11.966;2023-10-09T05:23:52;100520.75;;;14.92;99.55
32733;BME280;11867;51.198;11.966;2023-10-09T05:25:29;100524.38;;;15.02;99.20
32733;BME280;11867;51.198;11.966;2023-10-09T05:27:09;100523.03;;;15.13;98.76
32733;BME280;11867;51.198;11.966;2023-10-09T05:28:40;100524.09;;;14.89;99.97
32733;BME280;11867;51.198;11.966;2023-10-09T05:30:14;100524.28;;;14.93;100.00
32733;BME280;11867;51.198;11.966;2023-10-09T05:31:49;100537.91;;;14.98;100.00
32733;BME280;11867;51.198;11.966;2023-10-09T05:33:19;100538.94;;;15.16;98.72
32733;BME280;11867;51.198;11.966;2023-10-09T05:34:52;100532.31;;;15.03;98.60
32733;BME280;11867;51.198;11.966;2023-10-09T05:36:37;100542.50;;;14.89;99.91
32733;BME280;11867;51.198;11.966;2023-10-09T05:37:59;100545.44;;;14.79;100.00
32733;BME280;11867;51.198;11.966;2023-10-09T05:39:25;100535.28;;;14.93;99.59
32733;BME280;11867;51.198;11.966;2023-10-09T05:41:03;100538.03;;;14.46;100.00
32733;BME280;11867;51.198;11.966;2023-10-09T05:42:40;100538.53;;;14.35;100.00
32733;BME280;11867;51.198;11.966;2023-10-09T05:44:05;100543.06;;;14.58;100.00
32733;BME280;11867;51.198;11.966;2023-10-09T05:46:01;100537.75;;;14.48;100.00
32733;BME280;11867;51.198;11.966;2023-10-09T05:47:31;100537.19;;;14.65;100.00
32733;BME280;11867;51.198;11.966;2023-10-09T05:48:53;100536.81;;;14.39;100.00
32733;BME280;11867;51.198;11.966;2023-10-09T05:50:32;100539.00;;;14.69;100.00
32733;BME280;11867;51.198;11.966;2023-10-09T05:51:59;100539.81;;;14.56;100.00
32733;BME280;11867;51.198;11.966;2023-10-09T05:53:41;100562.19;;;14.77;100.00
32733;BME280;11867;51.198;11.966;2023-10-09T05:55:33;100560.56;;;14.90;100.00
32733;BME280;11867;51.198;11.966;2023-10-09T05:57:26;100558.56;;;15.09;99.13
32733;BME280;11867;51.198;11.966;2023-10-09T05:59:18;100555.09;;;14.90;100.00
32733;BME280;11867;51.198;11.966;2023-10-09T06:01:04;100573.41;;;14.95;99.69
32733;BME280;11867;51.198;11.966;2023-10-09T06:02:45;100562.63;;;14.84;100.00
32733;BME280;11867;51.198;11.966;2023-10-09T06:04:26;100565.06;;;14.72;100.00
32733;BME280;11867;51.198;11.966;2023-10-09T06:06:13;100566.63;;;14.59;100.00
32733;BME280;11867;51.198;11.966;2023-10-09T06:07:40;100566.50;;;14.50;100.00
32733;BME280;11867;51.198;11.966;2023-10-09T06:09:23;100564.50;;;14.23;100.00
32733;BME280;11867;51.198;11.966;2023-10-09T06:11:12;100564.31;;;14.33;100.00
32733;BME280;11867;51.198;11.966;2023-10-09T06:12:49;100569.84;;;14.47;100.00
32733;BME280;11867;51.198;11.966;2023-10-09T06:14:20;100572.56;;;14.66;100.00
32733;BME280;11867;51.198;11.966;2023-10-09T06:15:48;100572.88;;;14.79;100.00
32733;BME280;11867;51.198;11.966;2023-10-09T06:17:31;100569.44;;;14.87;100.00
32733;BME280;11867;51.198;11.966;2023-10-09T06:19:05;100569.72;;;14.85;100.00
32733;BME280;11867;51.198;11.966;2023-10-09T06:20:30;100579.28;;;14.74;100.00
32733;BME280;11867;51.198;11.966;2023-10-09T06:22:13;100587.19;;;14.76;100.00
32733;BME280;11867;51.198;11.966;2023-10-09T06:24:02;100594.81;;;14.65;100.00
32733;BME280;11867;51.198;11.966;2023-10-09T06:25:37;100588.44;;;14.83;100.00
32733;BME280;11867;51.198;11.966;2023-10-09T06:27:01;100589.66;;;14.91;100.00
32733;BME280;11867;51.198;11.966;2023-10-09T06:28:35;100592.81;;;14.84;100.00
32733;BME280;11867;51.198;11.966;2023-10-09T06:29:59;100594.84;;;15.06;100.00
32733;BME280;11867;51.198;11.966;2023-10-09T06:31:36;100587.97;;;15.09;100.00
32733;BME280;11867;51.198;11.966;2023-10-09T06:33:19;100590.28;;;15.02;99.99
32733;BME280;11867;51.198;11.966;2023-10-09T06:34:43;100598.41;;;14.93;100.00
32733;BME280;11867;51.198;11.966;2023-10-09T06:36:11;100588.25;;;15.07;100.00
32733;BME280;11867;51.198;11.966;2023-10-09T06:37:41;100594.97;;;15.29;99.88
32733;BME280;11867;51.198;11.966;2023-10-09T06:39:24;100598.41;;;14.93;100.00
32733;BME280;11867;51.198;11.966;2023-10-09T06:41:05;100596.78;;;14.78;100.00
32733;BME280;11867;51.198;11.966;2023-10-09T06:42:42;100606.22;;;14.86;100.00
32733;BME280;11867;51.198;11.966;2023-10-09T06:44:13;100613.78;;;14.61;100.00
32733;BME280;11867;51.198;11.966;2023-10-09T06:45:56;100602.31;;;14.26;100.00
32733;BME280;11867;51.198;11.966;2023-10-09T06:47:37;100608.53;;;14.65;100.00
32733;BME280;11867;51.198;11.966;2023-10-09T06:49:03;100610.06;;;14.71;100.00
32733;BME280;11867;51.198;11.966;2023-10-09T06:50:51;100606.72;;;14.74;100.00
32733;BME280;11867;51.198;11.966;2023-10-09T06:52:25;100617.66;;;14.60;100.00
32733;BME280;11867;51.198;11.966;2023-10-09T06:54:10;100622.69;;;14.53;100.00
32733;BME280;11867;51.198;11.966;2023-10-09T06:55:38;100615.84;;;14.69;100.00
32733;BME280;11867;51.198;11.966;2023-10-09T06:57:10;100622.81;;;14.81;100.00
32733;BME280;11867;51.198;11.966;2023-10-09T06:58:40;100626.34;;;14.81;100.00
32733;BME280;11867;51.198;11.966;2023-10-09T07:00:05;100638.28;;;14.90;100.00
32733;BME280;11867;51.198;11.966;2023-10-09T07:01:46;100640.47;;;14.75;100.00
32733;BME280;11867;51.198;11.966;2023-10-09T07:03:29;100643.03;;;14.85;100.00
32733;BME280;11867;51.198;11.966;2023-10-09T07:04:52;100635.41;;;14.82;100.00
32733;BME280;11867;51.198;11.966;2023-10-09T07:06:18;100645.69;;;14.90;100.00
32733;BME280;11867;51.198;11.966;2023-10-09T07:07:46;100647.53;;;15.08;100.00
32733;BME280;11867;51.198;11.966;2023-10-09T07:09:19;100640.22;;;14.57;100.00
32733;BME280;11867;51.198;11.966;2023-10-09T07:10:43;100636.91;;;14.55;100.00
32733;BME280;11867;51.198;11.966;2023-10-09T07:12:05;100643.91;;;14.66;100.00
32733;BME280;11867;51.198;11.966;2023-10-09T07:13:31;100642.88;;;14.62;100.00
32733;BME280;11867;51.198;11.966;2023-10-09T07:14:59;100632.84;;;14.52;100.00
32733;BME280;11867;51.198;11.966;2023-10-09T07:16:43;100628.66;;;14.60;100.00
32733;BME280;11867;51.198;11.966;2023-10-09T07:18:19;100633.56;;;14.77;100.00
32733;BME280;11867;51.198;11.966;2023-10-09T07:19:45;100626.19;;;14.59;100.00
32733;BME280;11867;51.198;11.966;2023-10-09T07:21:31;100616.09;;;14.54;100.00
32733;BME280;11867;51.198;11.966;2023-10-09T07:22:57;100615.44;;;14.62;100.00
32733;BME280;11867;51.198;11.966;2023-10-09T07:24:36;100615.75;;;14.42;100.00
32733;BME280;11867;51.198;11.966;2023-10-09T07:26:05;100623.97;;;14.42;100.00
32733;BME280;11867;51.198;11.966;2023-10-09T07:27:45;100633.63;;;14.39;100.00
32733;BME280;11867;51.198;11.966;2023-10-09T07:29:11;100632.09;;;14.14;100.00
32733;BME280;11867;51.198;11.966;2023-10-09T07:30:44;100634.53;;;14.35;100.00
32733;BME280;11867;51.198;11.966;2023-10-09T07:32:07;100636.59;;;14.43;100.00
32733;BME280;11867;51.198;11.966;2023-10-09T07:33:34;100647.88;;;14.41;100.00
32733;BME280;11867;51.198;11.966;2023-10-09T07:35:11;100649.09;;;14.49;100.00
32733;BME280;11867;51.198;11.966;2023-10-09T07:36:55;100643.47;;;14.59;100.00
32733;BME280;11867;51.198;11.966;2023-10-09T07:38:19;100638.84;;;14.73;100.00
32733;BME280;11867;51.198;11.966;2023-10-09T07:39:45;100646.38;;;14.68;100.00